sensor_id;sensor_type;location;lat;lon;timestamp;pressure;altitude;pressure_sealevel;temperature;humidity
14253;BME280;7210;51.502;10.722;2024-03-29T00:00:39;97761.38;;;5.87;100.00
14253;BME280;7210;51.502;10.722;2024-03-29T00:03:06;97761.19;;;5.93;100.00
14253;BME280;7210;51.502;10.722;2024-03-29T00:05:34;97749.91;;;5.93;100.00
14253;BME280;7210;51.502;10.722;2024-03-29T00:08:00;97748.97;;;5.82;100.00
14253;BME280;7210;51.502;10.722;2024-03-29T00:10:26;97743.84;;;5.76;100.00
14253;BME280;7210;51.502;10.722;2024-03-29T00:12:52;97748.88;;;5.77;100.00
14253;BME280;7210;51.502;10.722;2024-03-29T00:15:18;97757.53;;;5.78;100.00
14253;BME280;7210;51.502;10.722;2024-03-29T00:17:44;97753.25;;;5.72;100.00
14253;BME280;7210;51.502;10.722;2024-03-29T00:20:11;97762.47;;;5.74;100.00
14253;BME280;7210;51.502;10.722;2024-03-29T00:22:39;97756.59;;;5.67;100.00
14253;BME280;7210;51.502;10.722;2024-03-29T00:25:06;97759.06;;;5.57;100.00
14253;BME280;7210;51.502;10.722;2024-03-29T00:27:32;97752.31;;;5.45;100.00
14253;BME280;7210;51.502;10.722;2024-03-29T00:29:58;97778.06;;;5.81;100.00
14253;BME280;7210;51.502;10.722;2024-03-29T00:32:25;97787.91;;;5.90;100.00
14253;BME280;7210;51.502;10.722;2024-03-29T00:34:52;97793.59;;;6.04;100.00
14253;BME280;7210;51.502;10.722;2024-03-29T00:37:19;97785.41;;;6.22;100.00
14253;BME280;7210;51.502;10.722;2024-03-29T00:39:46;97774.50;;;6.30;100.00
14253;BME280;7210;51.502;10.722;2024-03-29T00:42:18;97770.97;;;6.41;100.00
14253;BME280;7210;51.502;10.722;2024-03-29T00:44:44;97771.94;;;6.56;100.00
14253;BME280;7210;51.502;10.722;2024-03-29T00:47:10;97756.19;;;6.56;99.57
14253;BME280;7210;51.502;10.722;2024-03-29T00:49:48;97750.53;;;6.43;99.01
14253;BME280;7210;51.502;10.722;2024-03-29T00:52:14;97756.28;;;6.40;98.77
14253;BME280;7210;51.502;10.722;2024-03-29T00:54:40;97761.03;;;6.43;98.39
14253;BME280;7210;51.502;10.722;2024-03-29T00:57:08;97752.53;;;6.36;98.03
14253;BME280;7210;51.502;10.722;2024-03-29T00:59:34;97761.53;;;6.40;97.39
14253;BME280;7210;51.502;10.722;2024-03-29T01:02:00;97766.81;;;6.45;96.92
14253;BME280;7210;51.502;10.722;2024-03-29T01:04:26;97759.81;;;6.29;96.85
14253;BME280;7210;51.502;10.722;2024-03-29T01:06:52;97763.47;;;6.28;96.54
14253;BME280;7210;51.502;10.722;2024-03-29T01:09:18;97781.91;;;6.33;96.30
14253;BME280;7210;51.502;10.722;2024-03-29T01:11:44;97788.78;;;6.39;95.84
14253;BME280;7210;51.502;10.722;2024-03-29T01:14:13;97790.44;;;6.45;95.23
14253;BME280;7210;51.502;10.722;2024-03-29T01:16:48;97787.38;;;6.53;94.79
14253;BME280;7210;51.502;10.722;2024-03-29T01:19:14;97799.03;;;6.62;94.65
14253;BME280;7210;51.502;10.722;2024-03-29T01:21:40;97790.19;;;6.68;93.75
14253;BME280;7210;51.502;10.722;2024-03-29T01:24:06;97782.25;;;6.63;93.60
14253;BME280;7210;51.502;10.722;2024-03-29T01:26:33;97786.72;;;6.62;92.91
14253;BME280;7210;51.502;10.722;2024-03-29T01:29:00;97775.78;;;6.49;92.78
14253;BME280;7210;51.502;10.722;2024-03-29T01:31:27;97772.50;;;6.37;92.48
14253;BME280;7210;51.502;10.722;2024-03-29T01:33:53;97772.19;;;6.33;92.55
14253;BME280;7210;51.502;10.722;2024-03-29T01:36:20;97771.34;;;6.28;92.06
14253;BME280;7210;51.502;10.722;2024-03-29T01:38:46;97771.25;;;6.23;91.93
14253;BME280;7210;51.502;10.722;2024-03-29T01:41:12;97770.09;;;6.14;92.22
14253;BME280;7210;51.502;10.722;2024-03-29T01:43:38;97779.50;;;6.10;92.09
14253;BME280;7210;51.502;10.722;2024-03-29T01:46:06;97778.81;;;5.98;92.04
14253;BME280;7210;51.502;10.722;2024-03-29T01:48:37;97780.09;;;5.79;92.12
14253;BME280;7210;51.502;10.722;2024-03-29T01:51:04;97778.03;;;5.64;91.98
14253;BME280;7210;51.502;10.722;2024-03-29T01:53:31;97785.97;;;5.53;92.11
14253;BME280;7210;51.502;10.722;2024-03-29T01:56:00;97820.44;;;5.45;92.59
14253;BME280;7210;51.502;10.722;2024-03-29T01:58:28;97840.75;;;5.38;92.64
14253;BME280;7210;51.502;10.722;2024-03-29T02:00:58;97863.22;;;5.34;92.77
14253;BME280;7210;51.502;10.722;2024-03-29T02:03:27;97853.91;;;5.26;93.26
14253;BME280;7210;51.502;10.722;2024-03-29T02:05:56;97877.25;;;5.28;93.29
14253;BME280;7210;51.502;10.722;2024-03-29T02:08:25;97868.19;;;5.19;93.42
14253;BME280;7210;51.502;10.722;2024-03-29T02:10:52;97866.88;;;5.05;93.36
14253;BME280;7210;51.502;10.722;2024-03-29T02:13:25;97866.22;;;4.98;93.69
14253;BME280;7210;51.502;10.722;2024-03-29T02:15:51;97867.06;;;4.87;94.07
14253;BME280;7210;51.502;10.722;2024-03-29T02:18:18;97860.63;;;4.78;94.27
14253;BME280;7210;51.502;10.722;2024-03-29T02:20:45;97867.25;;;4.69;94.55
14253;BME280;7210;51.502;10.722;2024-03-29T02:23:18;97876.56;;;4.65;94.97
14253;BME280;7210;51.502;10.722;2024-03-29T02:25:47;97878.84;;;4.61;95.20
14253;BME280;7210;51.502;10.722;2024-03-29T02:28:15;97884.22;;;4.55;95.30
14253;BME280;7210;51.502;10.722;2024-03-29T02:30:43;97892.75;;;4.50;95.70
14253;BME280;7210;51.502;10.722;2024-03-29T02:33:10;97912.53;;;4.58;96.03
14253;BME280;7210;51.502;10.722;2024-03-29T02:35:48;97920.50;;;4.63;96.36
14253;BME280;7210;51.502;10.722;2024-03-29T02:38:18;97917.28;;;4.61;96.82
14253;BME280;7210;51.502;10.722;2024-03-29T02:40:47;97922.09;;;4.64;97.03
14253;BME280;7210;51.502;10.722;2024-03-29T02:43:14;97920.50;;;4.63;96.99
14253;BME280;7210;51.502;10.722;2024-03-29T02:45:41;97933.66;;;4.68;97.35
14253;BME280;7210;51.502;10.722;2024-03-29T02:48:08;97917.97;;;4.68;97.68
14253;BME280;7210;51.502;10.722;2024-03-29T02:50:35;97911.81;;;4.74;97.54
14253;BME280;7210;51.502;10.722;2024-03-29T02:53:01;97897.59;;;4.81;97.83
14253;BME280;7210;51.502;10.722;2024-03-29T02:55:29;97883.81;;;4.86;97.57
14253;BME280;7210;51.502;10.722;2024-03-29T02:57:56;97876.50;;;4.88;97.87
14253;BME280;7210;51.502;10.722;2024-03-29T03:00:23;97886.50;;;4.91;97.61
14253;BME280;7210;51.502;10.722;2024-03-29T03:02:49;97877.31;;;4.88;97.76
14253;BME280;7210;51.502;10.722;2024-03-29T03:05:16;97875.38;;;4.84;97.88
14253;BME280;7210;51.502;10.722;2024-03-29T03:07:48;97873.78;;;4.83;98.35
14253;BME280;7210;51.502;10.722;2024-03-29T03:10:32;97882.09;;;4.91;98.45
14253;BME280;7210;51.502;10.722;2024-03-29T03:13:18;97887.97;;;4.98;98.23
14253;BME280;7210;51.502;10.722;2024-03-29T03:15:45;97880.44;;;5.02;98.56
14253;BME280;7210;51.502;10.722;2024-03-29T03:18:11;97876.47;;;4.99;98.29
14253;BME280;7210;51.502;10.722;2024-03-29T03:20:38;97866.22;;;4.98;98.26
14253;BME280;7210;51.502;10.722;2024-03-29T03:23:05;97868.28;;;4.96;98.38
14253;BME280;7210;51.502;10.722;2024-03-29T03:25:32;97872.38;;;4.92;98.45
14253;BME280;7210;51.502;10.722;2024-03-29T03:28:00;97865.13;;;4.94;98.37
14253;BME280;7210;51.502;10.722;2024-03-29T03:30:28;97863.06;;;4.96;98.83
14253;BME280;7210;51.502;10.722;2024-03-29T03:32:54;97868.28;;;4.96;98.75
14253;BME280;7210;51.502;10.722;2024-03-29T03:35:24;97857.81;;;4.96;98.67
14253;BME280;7210;51.502;10.722;2024-03-29T03:37:50;97849.41;;;4.94;99.03
14253;BME280;7210;51.502;10.722;2024-03-29T03:40:17;97833.38;;;4.90;99.00
14253;BME280;7210;51.502;10.722;2024-03-29T03:42:43;97855.91;;;4.91;99.12
14253;BME280;7210;51.502;10.722;2024-03-29T03:45:10;97873.63;;;5.01;99.43
14253;BME280;7210;51.502;10.722;2024-03-29T03:47:37;97880.09;;;5.10;99.51
14253;BME280;7210;51.502;10.722;2024-03-29T03:50:05;97878.03;;;5.12;99.60
14253;BME280;7210;51.502;10.722;2024-03-29T03:52:36;97868.69;;;5.16;99.50
14253;BME280;7210;51.502;10.722;2024-03-29T03:55:04;97861.09;;;5.31;99.68
14253;BME280;7210;51.502;10.722;2024-03-29T03:57:30;97861.38;;;5.34;99.40
14253;BME280;7210;51.502;10.722;2024-03-29T03:59:57;97859.69;;;5.40;99.36
14253;BME280;7210;51.502;10.722;2024-03-29T04:02:23;97850.63;;;5.47;99.20
14253;BME280;7210;51.502;10.722;2024-03-29T04:05:01;97836.03;;;5.51;98.97
14253;BME280;7210;51.502;10.722;2024-03-29T04:07:28;97835.22;;;5.67;98.61
14253;BME280;7210;51.502;10.722;2024-03-29T04:09:55;97826.66;;;5.72;98.54
14253;BME280;7210;51.502;10.722;2024-03-29T04:12:21;97830.84;;;5.73;98.21
14253;BME280;7210;51.502;10.722;2024-03-29T04:14:48;97828.25;;;5.73;98.40
14253;BME280;7210;51.502;10.722;2024-03-29T04:17:18;97825.63;;;5.73;98.20
14253;BME280;7210;51.502;10.722;2024-03-29T04:19:45;97823.78;;;5.73;98.30
14253;BME280;7210;51.502;10.722;2024-03-29T04:22:12;97825.25;;;5.81;98.02
14253;BME280;7210;51.502;10.722;2024-03-29T04:24:39;97827.88;;;5.81;97.92
14253;BME280;7210;51.502;10.722;2024-03-29T04:27:05;97826.72;;;5.77;98.00
14253;BME280;7210;51.502;10.722;2024-03-29T04:29:32;97833.00;;;5.76;97.60
14253;BME280;7210;51.502;10.722;2024-03-29T04:31:58;97829.00;;;5.73;97.71
14253;BME280;7210;51.502;10.722;2024-03-29T04:34:26;97848.94;;;5.86;97.82
14253;BME280;7210;51.502;10.722;2024-03-29T04:36:52;97842.06;;;5.85;97.73
14253;BME280;7210;51.502;10.722;2024-03-29T04:39:20;97855.59;;;5.93;97.63
14253;BME280;7210;51.502;10.722;2024-03-29T04:41:48;97871.31;;;5.93;97.58
14253;BME280;7210;51.502;10.722;2024-03-29T04:44:23;97882.13;;;5.97;97.47
14253;BME280;7210;51.502;10.722;2024-03-29T04:46:51;97896.81;;;5.98;97.68
14253;BME280;7210;51.502;10.722;2024-03-29T04:49:19;97884.75;;;5.97;97.35
14253;BME280;7210;51.502;10.722;2024-03-29T04:51:50;97893.25;;;6.04;97.69
14253;BME280;7210;51.502;10.722;2024-03-29T04:54:17;97889.59;;;6.05;97.60
14253;BME280;7210;51.502;10.722;2024-03-29T04:56:46;97895.47;;;6.12;97.23
14253;BME280;7210;51.502;10.722;2024-03-29T04:59:13;97897.78;;;6.08;97.21
14253;BME280;7210;51.502;10.722;2024-03-29T05:01:43;97893.25;;;6.04;96.75
14253;BME280;7210;51.502;10.722;2024-03-29T05:04:10;97909.47;;;6.01;97.13
14253;BME280;7210;51.502;10.722;2024-03-29T05:06:38;97913.09;;;6.00;96.95
14253;BME280;7210;51.502;10.722;2024-03-29T05:09:05;97918.03;;;5.96;96.88
14253;BME280;7210;51.502;10.722;2024-03-29T05:11:32;97932.50;;;5.99;97.50
14253;BME280;7210;51.502;10.722;2024-03-29T05:14:01;97931.56;;;6.05;97.40
14253;BME280;7210;51.502;10.722;2024-03-29T05:16:29;97928.06;;;5.99;97.27
14253;BME280;7210;51.502;10.722;2024-03-29T05:18:57;97930.75;;;6.04;97.29
14253;BME280;7210;51.502;10.722;2024-03-29T05:21:25;97937.84;;;6.04;97.25
14253;BME280;7210;51.502;10.722;2024-03-29T05:23:54;97943.94;;;6.09;97.36
14253;BME280;7210;51.502;10.722;2024-03-29T05:26:21;97950.47;;;6.07;96.68
14253;BME280;7210;51.502;10.722;2024-03-29T05:28:48;97945.22;;;6.07;97.02
14253;BME280;7210;51.502;10.722;2024-03-29T05:31:17;97939.97;;;6.07;96.80
14253;BME280;7210;51.502;10.722;2024-03-29T05:33:54;97940.59;;;6.14;96.73
14253;BME280;7210;51.502;10.722;2024-03-29T05:36:21;97937.75;;;6.15;96.83
14253;BME280;7210;51.502;10.722;2024-03-29T05:38:49;97924.41;;;6.17;96.94
14253;BME280;7210;51.502;10.722;2024-03-29T05:41:18;97926.00;;;6.18;96.90
14253;BME280;7210;51.502;10.722;2024-03-29T05:43:54;97927.09;;;6.22;96.71
14253;BME280;7210;51.502;10.722;2024-03-29T05:46:22;97954.13;;;6.22;96.84
14253;BME280;7210;51.502;10.722;2024-03-29T05:48:49;97956.53;;;6.24;96.78
14253;BME280;7210;51.502;10.722;2024-03-29T05:51:17;97971.47;;;6.23;96.91
14253;BME280;7210;51.502;10.722;2024-03-29T05:53:44;97979.09;;;6.25;96.88
14253;BME280;7210;51.502;10.722;2024-03-29T05:56:11;97983.63;;;6.29;96.78
14253;BME280;7210;51.502;10.722;2024-03-29T05:58:38;97986.56;;;6.33;97.00
14253;BME280;7210;51.502;10.722;2024-03-29T06:01:05;97986.16;;;6.41;96.89
14253;BME280;7210;51.502;10.722;2024-03-29T06:03:33;97983.53;;;6.41;96.85
14253;BME280;7210;51.502;10.722;2024-03-29T06:06:00;97975.09;;;6.39;96.62
14253;BME280;7210;51.502;10.722;2024-03-29T06:08:27;97967.47;;;6.37;96.48
14253;BME280;7210;51.502;10.722;2024-03-29T06:10:54;97975.09;;;6.39;96.45
14253;BME280;7210;51.502;10.722;2024-03-29T06:13:22;97972.56;;;6.44;96.64
14253;BME280;7210;51.502;10.722;2024-03-29T06:16:16;97956.81;;;6.44;96.20
14253;BME280;7210;51.502;10.722;2024-03-29T06:19:02;97947.13;;;6.44;96.40
14253;BME280;7210;51.502;10.722;2024-03-29T06:21:30;97954.72;;;6.46;96.40
14253;BME280;7210;51.502;10.722;2024-03-29T06:24:05;97960.63;;;6.53;96.63
14253;BME280;7210;51.502;10.722;2024-03-29T06:26:32;97959.25;;;6.67;95.89
14253;BME280;7210;51.502;10.722;2024-03-29T06:29:00;97956.84;;;6.65;95.88
14253;BME280;7210;51.502;10.722;2024-03-29T06:31:27;97956.63;;;6.67;95.93
14253;BME280;7210;51.502;10.722;2024-03-29T06:33:55;97959.78;;;6.69;95.45
14253;BME280;7210;51.502;10.722;2024-03-29T06:36:23;97947.25;;;6.71;95.81
14253;BME280;7210;51.502;10.722;2024-03-29T06:38:51;97939.91;;;6.73;95.64
14253;BME280;7210;51.502;10.722;2024-03-29T06:41:18;97937.81;;;6.75;95.32
14253;BME280;7210;51.502;10.722;2024-03-29T06:43:45;97924.94;;;6.73;95.33
14253;BME280;7210;51.502;10.722;2024-03-29T06:46:13;97919.53;;;6.80;95.45
14253;BME280;7210;51.502;10.722;2024-03-29T06:48:41;97914.28;;;6.80;95.13
14253;BME280;7210;51.502;10.722;2024-03-29T06:51:08;97925.13;;;6.88;95.12
14253;BME280;7210;51.502;10.722;2024-03-29T06:53:37;97924.88;;;6.90;95.31
14253;BME280;7210;51.502;10.722;2024-03-29T06:56:05;97935.47;;;6.95;94.96
14253;BME280;7210;51.502;10.722;2024-03-29T06:58:32;97941.81;;;6.99;95.02
14253;BME280;7210;51.502;10.722;2024-03-29T07:00:59;97947.13;;;7.04;94.91
14253;BME280;7210;51.502;10.722;2024-03-29T07:03:26;97947.19;;;7.09;95.28
14253;BME280;7210;51.502;10.722;2024-03-29T07:05:53;97945.16;;;7.16;94.97
14253;BME280;7210;51.502;10.722;2024-03-29T07:08:20;97946.34;;;7.25;94.92
14253;BME280;7210;51.502;10.722;2024-03-29T07:10:58;97960.88;;;7.32;94.57
14253;BME280;7210;51.502;10.722;2024-03-29T07:13:25;97964.41;;;7.42;94.51
14253;BME280;7210;51.502;10.722;2024-03-29T07:15:53;97979.25;;;7.53;94.75
14253;BME280;7210;51.502;10.722;2024-03-29T07:18:20;97976.16;;;7.61;94.55
14253;BME280;7210;51.502;10.722;2024-03-29T07:20:47;97987.84;;;7.70;94.16
14253;BME280;7210;51.502;10.722;2024-03-29T07:23:19;97990.03;;;7.78;93.60
14253;BME280;7210;51.502;10.722;2024-03-29T07:25:59;97987.38;;;7.78;92.91
14253;BME280;7210;51.502;10.722;2024-03-29T07:28:27;97978.19;;;7.76;92.74
14253;BME280;7210;51.502;10.722;2024-03-29T07:30:55;98001.72;;;7.87;92.61
14253;BME280;7210;51.502;10.722;2024-03-29T07:33:24;97981.00;;;7.96;92.29
14253;BME280;7210;51.502;10.722;2024-03-29T07:35:52;98005.06;;;8.09;91.87
14253;BME280;7210;51.502;10.722;2024-03-29T07:38:19;98001.63;;;8.35;91.56
14253;BME280;7210;51.502;10.722;2024-03-29T07:40:47;97996.91;;;8.37;91.33
14253;BME280;7210;51.502;10.722;2024-03-29T07:43:20;98002.69;;;8.34;91.24
14253;BME280;7210;51.502;10.722;2024-03-29T07:45:49;98017.44;;;8.35;91.61
14253;BME280;7210;51.502;10.722;2024-03-29T07:48:17;98031.13;;;8.37;91.79
14253;BME280;7210;51.502;10.722;2024-03-29T07:50:48;98032.19;;;8.36;91.88
14253;BME280;7210;51.502;10.722;2024-03-29T07:53:15;98043.78;;;8.40;92.06
14253;BME280;7210;51.502;10.722;2024-03-29T07:55:42;98058.28;;;8.38;92.12
14253;BME280;7210;51.502;10.722;2024-03-29T07:58:10;98057.97;;;8.34;92.53
14253;BME280;7210;51.502;10.722;2024-03-29T08:00:40;98047.91;;;8.26;92.75
14253;BME280;7210;51.502;10.722;2024-03-29T08:03:08;98043.13;;;8.23;92.93
14253;BME280;7210;51.502;10.722;2024-03-29T08:05:35;98049.97;;;8.24;93.20
14253;BME280;7210;51.502;10.722;2024-03-29T08:08:03;98059.41;;;8.20;93.56
14253;BME280;7210;51.502;10.722;2024-03-29T08:10:31;98086.88;;;8.29;94.06
14253;BME280;7210;51.502;10.722;2024-03-29T08:12:58;98079.28;;;8.33;94.58
14253;BME280;7210;51.502;10.722;2024-03-29T08:15:26;98081.91;;;8.33;94.47
14253;BME280;7210;51.502;10.722;2024-03-29T08:17:55;98088.97;;;8.54;94.50
14253;BME280;7210;51.502;10.722;2024-03-29T08:20:22;98091.09;;;8.57;94.84
14253;BME280;7210;51.502;10.722;2024-03-29T08:22:57;98082.09;;;8.53;94.80
14253;BME280;7210;51.502;10.722;2024-03-29T08:25:24;98078.72;;;8.57;95.25
14253;BME280;7210;51.502;10.722;2024-03-29T08:27:53;98076.09;;;8.57;95.41
14253;BME280;7210;51.502;10.722;2024-03-29T08:30:24;98081.34;;;8.57;95.58
14253;BME280;7210;51.502;10.722;2024-03-29T08:32:51;98077.41;;;8.60;95.68
14253;BME280;7210;51.502;10.722;2024-03-29T08:35:20;98075.28;;;8.57;95.90
14253;BME280;7210;51.502;10.722;2024-03-29T08:37:47;98079.25;;;8.59;96.09
14253;BME280;7210;51.502;10.722;2024-03-29T08:40:18;98070.31;;;8.60;96.48
14253;BME280;7210;51.502;10.722;2024-03-29T08:42:45;98074.28;;;8.63;96.39
14253;BME280;7210;51.502;10.722;2024-03-29T08:45:12;98072.72;;;8.67;97.06
14253;BME280;7210;51.502;10.722;2024-03-29T08:47:40;98078.84;;;8.72;96.95
14253;BME280;7210;51.502;10.722;2024-03-29T08:50:08;98077.03;;;8.78;97.03
14253;BME280;7210;51.502;10.722;2024-03-29T08:52:38;98072.53;;;8.78;97.38
14253;BME280;7210;51.502;10.722;2024-03-29T08:55:06;98066.28;;;8.84;97.27
14253;BME280;7210;51.502;10.722;2024-03-29T08:57:34;98067.16;;;8.95;97.49
14253;BME280;7210;51.502;10.722;2024-03-29T09:00:01;98065.84;;;8.97;97.72
14253;BME280;7210;51.502;10.722;2024-03-29T09:02:29;98060.06;;;9.00;98.05
14253;BME280;7210;51.502;10.722;2024-03-29T09:04:56;98057.19;;;9.02;97.93
14253;BME280;7210;51.502;10.722;2024-03-29T09:07:24;98058.53;;;9.09;97.86
14253;BME280;7210;51.502;10.722;2024-03-29T09:09:53;98076.50;;;9.17;97.76
14253;BME280;7210;51.502;10.722;2024-03-29T09:12:20;98062.84;;;9.25;98.15
14253;BME280;7210;51.502;10.722;2024-03-29T09:14:48;98066.88;;;9.38;97.89
14253;BME280;7210;51.502;10.722;2024-03-29T09:17:16;98079.38;;;9.62;98.02
14253;BME280;7210;51.502;10.722;2024-03-29T09:19:43;98071.50;;;9.72;97.99
14253;BME280;7210;51.502;10.722;2024-03-29T09:22:12;98080.53;;;9.81;97.97
14253;BME280;7210;51.502;10.722;2024-03-29T09:24:39;98071.06;;;9.95;97.83
14253;BME280;7210;51.502;10.722;2024-03-29T09:27:08;98060.00;;;10.03;97.39
14253;BME280;7210;51.502;10.722;2024-03-29T09:29:35;98048.41;;;10.09;97.05
14253;BME280;7210;51.502;10.722;2024-03-29T09:32:02;98035.50;;;10.08;96.70
14253;BME280;7210;51.502;10.722;2024-03-29T09:34:29;98024.38;;;10.01;96.32
14253;BME280;7210;51.502;10.722;2024-03-29T09:36:57;98016.41;;;9.96;95.98
14253;BME280;7210;51.502;10.722;2024-03-29T09:39:24;98017.47;;;9.90;95.91
14253;BME280;7210;51.502;10.722;2024-03-29T09:41:55;98030.41;;;9.91;96.14
14253;BME280;7210;51.502;10.722;2024-03-29T09:44:33;98031.97;;;9.87;95.85
14253;BME280;7210;51.502;10.722;2024-03-29T09:47:04;98034.59;;;9.87;96.03
14253;BME280;7210;51.502;10.722;2024-03-29T09:49:32;98027.75;;;9.86;96.00
14253;BME280;7210;51.502;10.722;2024-03-29T09:52:00;98035.69;;;9.91;96.15
14253;BME280;7210;51.502;10.722;2024-03-29T09:54:31;98042.53;;;9.92;96.23
14253;BME280;7210;51.502;10.722;2024-03-29T09:56:59;98037.53;;;9.96;96.07
14253;BME280;7210;51.502;10.722;2024-03-29T09:59:32;98044.69;;;10.00;96.15
14253;BME280;7210;51.502;10.722;2024-03-29T10:02:04;98048.16;;;10.06;96.08
14253;BME280;7210;51.502;10.722;2024-03-29T10:04:38;98043.16;;;10.14;95.98
14253;BME280;7210;51.502;10.722;2024-03-29T10:07:13;98058.47;;;10.22;95.94
14253;BME280;7210;51.502;10.722;2024-03-29T10:09:43;98063.78;;;10.32;95.83
14253;BME280;7210;51.502;10.722;2024-03-29T10:12:12;98069.88;;;10.53;95.68
14253;BME280;7210;51.502;10.722;2024-03-29T10:14:47;98075.94;;;10.63;95.45
14253;BME280;7210;51.502;10.722;2024-03-29T10:17:18;98080.72;;;10.86;95.33
14253;BME280;7210;51.502;10.722;2024-03-29T10:19:46;98077.53;;;10.94;94.71
14253;BME280;7210;51.502;10.722;2024-03-29T10:22:13;98080.72;;;11.06;94.58
14253;BME280;7210;51.502;10.722;2024-03-29T10:24:41;98068.53;;;11.15;94.30
14253;BME280;7210;51.502;10.722;2024-03-29T10:27:08;98071.16;;;11.20;94.09
14253;BME280;7210;51.502;10.722;2024-03-29T10:29:35;98061.88;;;11.27;93.49
14253;BME280;7210;51.502;10.722;2024-03-29T10:32:04;98066.91;;;11.29;93.13
14253;BME280;7210;51.502;10.722;2024-03-29T10:34:31;98080.13;;;11.29;92.89
14253;BME280;7210;51.502;10.722;2024-03-29T10:37:07;98073.78;;;11.25;92.67
14253;BME280;7210;51.502;10.722;2024-03-29T10:39:42;98075.91;;;11.23;92.50
14253;BME280;7210;51.502;10.722;2024-03-29T10:42:11;98083.03;;;11.27;92.51
14253;BME280;7210;51.502;10.722;2024-03-29T10:44:40;98104.47;;;11.36;92.56
14253;BME280;7210;51.502;10.722;2024-03-29T10:47:13;98085.13;;;11.35;92.13
14253;BME280;7210;51.502;10.722;2024-03-29T10:49:46;98099.16;;;11.41;92.07
14253;BME280;7210;51.502;10.722;2024-03-29T10:52:17;98106.53;;;11.49;92.10
14253;BME280;7210;51.502;10.722;2024-03-29T10:54:45;98095.13;;;11.53;91.82
14253;BME280;7210;51.502;10.722;2024-03-29T10:57:20;98100.22;;;11.45;91.52
14253;BME280;7210;51.502;10.722;2024-03-29T11:00:01;98097.03;;;11.43;91.54
14253;BME280;7210;51.502;10.722;2024-03-29T11:02:45;98088.56;;;11.46;91.55
14253;BME280;7210;51.502;10.722;2024-03-29T11:05:16;98114.50;;;11.59;91.61
14253;BME280;7210;51.502;10.722;2024-03-29T11:07:50;98116.03;;;11.75;91.68
14253;BME280;7210;51.502;10.722;2024-03-29T11:10:25;98108.56;;;11.87;91.68
14253;BME280;7210;51.502;10.722;2024-03-29T11:13:02;98104.25;;;12.06;90.79
14253;BME280;7210;51.502;10.722;2024-03-29T11:15:37;98108.94;;;12.19;90.35
14253;BME280;7210;51.502;10.722;2024-03-29T11:18:07;98103.88;;;12.27;89.60
14253;BME280;7210;51.502;10.722;2024-03-29T11:20:35;98083.75;;;12.21;88.81
14253;BME280;7210;51.502;10.722;2024-03-29T11:23:08;98076.06;;;12.20;88.40
14253;BME280;7210;51.502;10.722;2024-03-29T11:25:44;98084.06;;;12.15;87.84
14253;BME280;7210;51.502;10.722;2024-03-29T11:28:13;98078.78;;;12.10;87.54
14253;BME280;7210;51.502;10.722;2024-03-29T11:30:47;98080.41;;;12.06;86.99
14253;BME280;7210;51.502;10.722;2024-03-29T11:33:32;98061.88;;;12.01;86.34
14253;BME280;7210;51.502;10.722;2024-03-29T11:36:08;98063.72;;;12.00;86.17
14253;BME280;7210;51.502;10.722;2024-03-29T11:38:36;98084.34;;;12.08;86.10
14253;BME280;7210;51.502;10.722;2024-03-29T11:41:05;98115.06;;;12.14;86.27
14253;BME280;7210;51.502;10.722;2024-03-29T11:43:34;98120.06;;;12.21;86.13
14253;BME280;7210;51.502;10.722;2024-03-29T11:46:02;98102.06;;;12.18;85.76
14253;BME280;7210;51.502;10.722;2024-03-29T11:48:31;98068.72;;;12.12;85.03
14253;BME280;7210;51.502;10.722;2024-03-29T11:50:59;98050.72;;;12.09;84.53
14253;BME280;7210;51.502;10.722;2024-03-29T11:53:27;98059.22;;;12.06;84.28
14253;BME280;7210;51.502;10.722;2024-03-29T11:56:06;98033.56;;;12.01;83.56
14253;BME280;7210;51.502;10.722;2024-03-29T11:58:42;98002.38;;;11.88;82.58
14253;BME280;7210;51.502;10.722;2024-03-29T12:01:13;98003.19;;;11.84;82.13
14253;BME280;7210;51.502;10.722;2024-03-29T12:03:43;98003.72;;;11.81;81.70
14253;BME280;7210;51.502;10.722;2024-03-29T12:06:10;98016.44;;;11.84;81.56
14253;BME280;7210;51.502;10.722;2024-03-29T12:08:39;98016.38;;;11.89;81.27
14253;BME280;7210;51.502;10.722;2024-03-29T12:11:09;98042.84;;;11.99;81.49
14253;BME280;7210;51.502;10.722;2024-03-29T12:13:36;98081.69;;;12.13;81.70
14253;BME280;7210;51.502;10.722;2024-03-29T12:16:07;98077.44;;;12.17;81.30
14253;BME280;7210;51.502;10.722;2024-03-29T12:18:34;98082.97;;;12.21;80.81
14253;BME280;7210;51.502;10.722;2024-03-29T12:21:04;98081.63;;;12.23;80.61
14253;BME280;7210;51.502;10.722;2024-03-29T12:23:31;98087.72;;;12.24;80.40
14253;BME280;7210;51.502;10.722;2024-03-29T12:25:58;98095.66;;;12.24;80.44
14253;BME280;7210;51.502;10.722;2024-03-29T12:28:26;98049.06;;;12.18;79.65
14253;BME280;7210;51.502;10.722;2024-03-29T12:30:54;98097.22;;;12.30;80.10
14253;BME280;7210;51.502;10.722;2024-03-29T12:33:24;98104.88;;;12.31;79.96
14253;BME280;7210;51.502;10.722;2024-03-29T12:35:52;98144.28;;;12.53;80.00
14253;BME280;7210;51.502;10.722;2024-03-29T12:38:22;98148.94;;;12.66;79.84
14253;BME280;7210;51.502;10.722;2024-03-29T12:40:50;98139.16;;;12.66;79.60
14253;BME280;7210;51.502;10.722;2024-03-29T12:43:21;98111.94;;;12.51;79.30
14253;BME280;7210;51.502;10.722;2024-03-29T12:45:50;98137.91;;;12.49;79.88
14253;BME280;7210;51.502;10.722;2024-03-29T12:48:20;98139.25;;;12.46;79.71
14253;BME280;7210;51.502;10.722;2024-03-29T12:50:49;98146.88;;;12.58;80.12
14253;BME280;7210;51.502;10.722;2024-03-29T12:53:18;98192.66;;;12.78;80.23
14253;BME280;7210;51.502;10.722;2024-03-29T12:55:48;98205.84;;;12.88;80.02
14253;BME280;7210;51.502;10.722;2024-03-29T12:58:18;98145.44;;;12.75;79.80
14253;BME280;7210;51.502;10.722;2024-03-29T13:00:48;98158.34;;;12.92;79.88
14253;BME280;7210;51.502;10.722;2024-03-29T13:03:16;98119.06;;;12.89;79.42
14253;BME280;7210;51.502;10.722;2024-03-29T13:05:43;98158.84;;;12.99;79.95
14253;BME280;7210;51.502;10.722;2024-03-29T13:08:12;98140.31;;;12.89;79.97
14253;BME280;7210;51.502;10.722;2024-03-29T13:10:41;98206.28;;;13.05;80.41
14253;BME280;7210;51.502;10.722;2024-03-29T13:13:14;98168.41;;;12.95;80.21
14253;BME280;7210;51.502;10.722;2024-03-29T13:15:41;98169.78;;;12.87;80.21